Cele, Texas
Current Conditions -  °F | °C
As of 7:15 PM on Saturday 22 Nov 2014 (Local Time) from KEDC Reporting Station
Overcast Overcast  
Wind Chill: 63°   Ceiling: 700
Heat Index: 63°   Visibility: 10mi
Dew Point: 63°   Wind: 8mph
Humidity: 100%   Direction: 40°NE
Pressure: 29.77"   Gusts: NA
Location:  30.352°N, 97.5205°W
Report Text: KEDC 230115Z AUTO 04007KT 10SM OVC007 17/17 A2977 RMK AO2
Loading
Personal Weather Stations






























Interactive Weather Map New forecast layout! Learn more

10-Day Weather Forecast

Advertisements
Track Severe Weather on mobile